George, Washington
Current Conditions -  °F | °C
As of 12:53 PM on Monday 22 Dec 2014 (Local Time) from KEPH Reporting Station
Clear Clear  
Wind Chill: 51°   Ceiling: Unl
Heat Index: 51°   Visibility: 10mi
Dew Point: 27°   Wind: 14mph
Humidity: 39%   Direction: 300°WNW
Pressure: 30.23"   Gusts: 23mph
Location:  47.08°N, 119.86°W
Report Text: KEPH 222053Z AUTO 30012G20KT 10SM CLR 11/M03 A3023 RMK AO2 SLP245 T01061028 53009
Loading
Personal Weather Stations






























Interactive Weather Map New forecast layout! Learn more

10-Day Weather Forecast

Advertisements
Track Severe Weather on mobile